Time;durP1;ratioP1;P1;durP2;ratioP2;P2;SDS_P1;SDS_P2;PMS_P1;PMS_P2;Temp;Humidity;BMP_temperature;BMP_pressure;BME280_temperature;BME280_humidity;BME280_pressure;Samples;Min_cycle;Max_cycle;Signal;HPM_P1;HPM_P2
2024/05/07 00:00:28;;;;;;;4.25;3.28;;;25.90;99.90;;;;;;5310557;27;19998;-53
2024/05/07 00:02:54;;;;;;;4.03;3.05;;;25.90;99.90;;;;;;5313752;27;20009;-55
2024/05/07 00:05:19;;;;;;;4.68;3.08;;;25.90;99.90;;;;;;5313695;26;20012;-55
2024/05/07 00:07:45;;;;;;;4.07;3.00;;;25.90;99.90;;;;;;5313680;27;20418;-56
2024/05/07 00:10:11;;;;;;;4.15;2.83;;;25.90;99.90;;;;;;5313534;27;20338;-55
2024/05/07 00:12:37;;;;;;;5.15;3.35;;;25.90;99.90;;;;;;5313672;26;19997;-56
2024/05/07 00:15:03;;;;;;;5.55;3.67;;;25.90;99.90;;;;;;5311842;27;20008;-56
2024/05/07 00:17:29;;;;;;;5.63;3.50;;;25.90;99.90;;;;;;5313015;27;20338;-55
2024/05/07 00:19:57;;;;;;;5.13;4.05;;;25.90;99.90;;;;;;5313110;27;20002;-56
2024/05/07 00:22:23;;;;;;;5.82;4.07;;;25.90;99.90;;;;;;5313334;26;20013;-55
2024/05/07 00:24:48;;;;;;;4.93;2.97;;;25.90;99.90;;;;;;5312792;27;20072;-55
2024/05/07 00:27:14;;;;;;;5.68;4.43;;;25.90;99.90;;;;;;5313281;27;20007;-55
2024/05/07 00:29:40;;;;;;;6.90;4.10;;;25.90;99.90;;;;;;5313309;27;20434;-55
2024/05/07 00:32:06;;;;;;;5.75;3.33;;;25.90;99.90;;;;;;5313127;27;20323;-55
2024/05/07 00:34:33;;;;;;;5.32;3.95;;;25.90;99.90;;;;;;5327992;26;20029;-57
2024/05/07 00:36:59;;;;;;;4.45;3.35;;;25.90;99.90;;;;;;5347566;26;20092;-55
2024/05/07 00:39:25;;;;;;;4.10;3.10;;;25.90;99.90;;;;;;5347523;26;20383;-55
2024/05/07 00:41:50;;;;;;;5.15;3.75;;;25.90;99.90;;;;;;5347541;26;20001;-57
2024/05/07 00:44:16;;;;;;;5.25;3.28;;;25.90;99.90;;;;;;5347293;26;20000;-54
2024/05/07 00:46:43;;;;;;;4.70;3.42;;;25.90;99.90;;;;;;5347190;26;20009;-55
2024/05/07 00:49:10;;;;;;;4.93;3.05;;;25.90;99.90;;;;;;5347115;26;20013;-53
2024/05/07 00:51:37;;;;;;;;;;;25.90;99.90;;;;;;5348219;26;19996;-55
2024/05/07 00:54:03;;;;;;;3.95;2.80;;;25.90;99.90;;;;;;5346523;26;19929;-55
2024/05/07 00:56:29;;;;;;;5.07;2.92;;;25.90;99.90;;;;;;5313232;26;20112;-54
2024/05/07 00:58:55;;;;;;;4.95;3.13;;;25.90;99.90;;;;;;5312515;27;20372;-53
2024/05/07 01:01:23;;;;;;;5.13;3.00;;;25.90;99.90;;;;;;5312981;26;19997;-53
2024/05/07 01:03:48;;;;;;;4.07;2.92;;;25.80;99.90;;;;;;5312426;27;20075;-56
2024/05/07 01:06:14;;;;;;;4.03;3.00;;;25.80;99.90;;;;;;5322497;26;20008;-56
2024/05/07 01:08:40;;;;;;;5.05;2.80;;;25.80;99.90;;;;;;5346970;26;20036;-56
2024/05/07 01:11:06;;;;;;;3.80;2.60;;;25.90;99.90;;;;;;5347436;26;19997;-56
2024/05/07 01:13:32;;;;;;;4.55;3.05;;;25.90;99.90;;;;;;5346777;26;20052;-54
2024/05/07 01:15:57;;;;;;;4.07;2.90;;;25.90;99.90;;;;;;5346936;26;19997;-56
2024/05/07 01:18:23;;;;;;;3.50;2.88;;;25.80;99.90;;;;;;5347205;26;20329;-56
2024/05/07 01:20:49;;;;;;;3.67;2.50;;;25.80;99.90;;;;;;5345356;26;20000;-56
2024/05/07 01:23:15;;;;;;;2.92;2.05;;;25.80;99.90;;;;;;5337556;26;20012;-56
2024/05/07 01:25:46;;;;;;;3.65;2.55;;;25.80;99.90;;;;;;5312357;27;20046;-56
2024/05/07 01:28:13;;;;;;;3.40;2.75;;;25.80;99.90;;;;;;5312674;27;20005;-55
2024/05/07 01:30:39;;;;;;;3.47;2.70;;;25.80;99.90;;;;;;5312516;26;20017;-56
2024/05/07 01:33:05;;;;;;;3.58;2.63;;;25.80;99.90;;;;;;5312130;26;20001;-55
2024/05/07 01:35:31;;;;;;;5.57;2.42;;;25.80;99.90;;;;;;5312246;27;20033;-55
2024/05/07 01:37:57;;;;;;;3.72;2.00;;;25.80;99.90;;;;;;5312144;27;20016;-54
2024/05/07 01:40:22;;;;;;;5.40;1.92;;;25.80;99.90;;;;;;5321193;26;20336;-54
2024/05/07 01:42:48;;;;;;;2.60;2.10;;;25.80;99.90;;;;;;5312031;27;20016;-55
2024/05/07 01:45:14;;;;;;;2.67;2.35;;;25.80;99.90;;;;;;5321318;26;20001;-55
2024/05/07 01:47:40;;;;;;;3.95;2.10;;;25.80;99.90;;;;;;5328969;26;20006;-54
2024/05/07 01:50:07;;;;;;;3.42;1.92;;;25.80;99.90;;;;;;5326888;26;20006;-55
2024/05/07 01:52:33;;;;;;;4.47;1.50;;;25.80;99.90;;;;;;5329384;26;20004;-56
2024/05/07 01:54:59;;;;;;;2.40;1.65;;;25.80;99.90;;;;;;5328696;26;20020;-54
2024/05/07 01:57:25;;;;;;;2.63;1.88;;;25.80;99.90;;;;;;5334397;26;20079;-55
2024/05/07 01:59:51;;;;;;;2.85;2.00;;;25.80;99.90;;;;;;5328922;26;20002;-55
2024/05/07 02:02:16;;;;;;;2.50;1.90;;;25.80;99.90;;;;;;5346078;26;20082;-55
2024/05/07 02:04:42;;;;;;;1.83;1.33;;;25.80;99.90;;;;;;5345716;26;20012;-56
2024/05/07 02:07:08;;;;;;;2.83;1.80;;;25.80;99.90;;;;;;5345632;26;20004;-55
2024/05/07 02:09:34;;;;;;;2.60;1.85;;;25.70;99.90;;;;;;5345722;26;20012;-55
2024/05/07 02:11:59;;;;;;;2.88;1.77;;;25.70;99.90;;;;;;5343756;26;20045;-56
2024/05/07 02:14:25;;;;;;;5.45;2.13;;;25.70;99.90;;;;;;5341112;26;20012;-56
2024/05/07 02:16:51;;;;;;;2.25;1.52;;;25.70;99.90;;;;;;5342794;26;19997;-56
2024/05/07 02:19:18;;;;;;;3.75;1.60;;;25.70;99.90;;;;;;5355197;26;20019;-57
2024/05/07 02:21:45;;;;;;;2.90;1.70;;;25.70;99.90;;;;;;5346051;26;20012;-57
2024/05/07 02:24:10;;;;;;;2.58;1.50;;;25.70;99.90;;;;;;5345587;26;20531;-57
2024/05/07 02:26:36;;;;;;;2.20;1.67;;;25.70;99.90;;;;;;5346249;26;19997;-56
2024/05/07 02:29:02;;;;;;;3.03;1.50;;;25.70;99.90;;;;;;5346253;26;20019;-56
2024/05/07 02:31:28;;;;;;;2.38;1.42;;;25.70;99.90;;;;;;5344604;26;20008;-56
2024/05/07 02:33:54;;;;;;;3.10;1.92;;;25.70;99.90;;;;;;5349289;26;20325;-56
2024/05/07 02:36:20;;;;;;;1.92;1.30;;;25.70;99.90;;;;;;5346866;26;20039;-56
2024/05/07 02:38:46;;;;;;;3.20;1.40;;;25.70;99.90;;;;;;5344539;26;19996;-56
2024/05/07 02:41:12;;;;;;;2.58;1.60;;;25.60;99.90;;;;;;5346153;26;20382;-55
2024/05/07 02:43:38;;;;;;;3.75;1.65;;;25.60;99.90;;;;;;5346401;26;20029;-55
2024/05/07 02:46:11;;;;;;;3.00;1.77;;;25.60;99.90;;;;;;5345874;26;20001;-55
2024/05/07 02:48:37;;;;;;;1.80;1.00;;;25.60;99.90;;;;;;5346296;26;20032;-55
2024/05/07 02:51:02;;;;;;;2.88;1.40;;;25.60;99.90;;;;;;5345873;26;20046;-55
2024/05/07 02:53:28;;;;;;;1.55;1.40;;;25.60;99.90;;;;;;5345973;26;20001;-55
2024/05/07 02:55:54;;;;;;;1.90;1.30;;;25.60;99.90;;;;;;5345594;26;19996;-56
2024/05/07 02:58:20;;;;;;;4.10;1.63;;;25.60;99.90;;;;;;5345906;26;20464;-57
2024/05/07 03:00:46;;;;;;;1.95;1.33;;;25.60;99.90;;;;;;5363682;21;20008;-54
2024/05/07 03:03:12;;;;;;;2.78;1.38;;;25.60;99.90;;;;;;5381071;26;20437;-54
2024/05/07 03:05:38;;;;;;;2.08;1.17;;;25.60;99.90;;;;;;5380483;26;20073;-54
2024/05/07 03:08:04;;;;;;;3.93;2.40;;;25.60;99.90;;;;;;5380427;26;20313;-55
2024/05/07 03:10:30;;;;;;;2.33;1.35;;;25.50;99.90;;;;;;5380397;26;20028;-55
2024/05/07 03:12:56;;;;;;;4.38;1.33;;;25.50;99.90;;;;;;5380649;26;20130;-55
2024/05/07 03:15:22;;;;;;;1.40;0.93;;;25.50;99.90;;;;;;5380617;26;20417;-55
2024/05/07 03:17:47;;;;;;;1.73;1.20;;;25.50;99.90;;;;;;5380666;26;20444;-55
2024/05/07 03:20:13;;;;;;;2.17;1.35;;;25.50;99.90;;;;;;5380403;26;20316;-55
2024/05/07 03:22:50;;;;;;;2.17;1.10;;;25.50;99.90;;;;;;5380229;26;20073;-54
2024/05/07 03:25:16;;;;;;;3.92;1.52;;;25.50;99.90;;;;;;5380141;26;20062;-55
2024/05/07 03:27:42;;;;;;;2.35;1.23;;;25.50;99.90;;;;;;5380531;26;20008;-54
2024/05/07 03:30:08;;;;;;;4.28;1.40;;;25.50;99.90;;;;;;5379993;26;20001;-55
2024/05/07 03:32:34;;;;;;;1.98;1.33;;;25.50;99.90;;;;;;5379932;26;20069;-55
2024/05/07 03:34:59;;;;;;;1.63;1.40;;;25.50;99.90;;;;;;5381003;26;20000;-55
2024/05/07 03:37:25;;;;;;;2.55;1.00;;;25.50;99.90;;;;;;5383485;26;19996;-55
2024/05/07 03:39:51;;;;;;;1.38;1.00;;;25.50;99.90;;;;;;5383397;26;20007;-55
2024/05/07 03:42:17;;;;;;;2.30;1.05;;;25.40;99.90;;;;;;5383604;26;19993;-55
2024/05/07 03:44:43;;;;;;;3.42;1.08;;;25.40;99.90;;;;;;5383951;26;19992;-55
2024/05/07 03:47:08;;;;;;;1.70;1.00;;;25.40;99.90;;;;;;5383432;26;20420;-55
2024/05/07 03:49:38;;;;;;;2.17;1.50;;;25.40;99.90;;;;;;5383144;26;19996;-55
2024/05/07 03:52:04;;;;;;;1.45;0.90;;;25.40;99.90;;;;;;5381916;26;20007;-55
2024/05/07 03:54:30;;;;;;;1.60;1.10;;;25.40;99.90;;;;;;5348670;26;19997;-56
2024/05/07 03:56:56;;;;;;;2.45;1.23;;;25.40;99.90;;;;;;5344619;26;19997;-55
2024/05/07 03:59:21;;;;;;;4.47;1.60;;;25.40;99.90;;;;;;5344330;26;20001;-55
2024/05/07 04:01:47;;;;;;;3.78;1.27;;;25.40;99.90;;;;;;5344388;26;20001;-55
2024/05/07 04:04:13;;;;;;;2.63;1.30;;;25.40;99.90;;;;;;5345131;26;20000;-55
2024/05/07 04:06:43;;;;;;;1.38;1.00;;;25.40;99.90;;;;;;5344409;26;19997;-55
2024/05/07 04:09:12;;;;;;;1.40;0.80;;;25.40;99.90;;;;;;5346075;26;20006;-55
2024/05/07 04:11:41;;;;;;;1.23;0.93;;;25.40;99.90;;;;;;5347829;26;20011;-55
2024/05/07 04:14:08;;;;;;;1.42;0.90;;;25.40;99.90;;;;;;5348066;26;19997;-55
2024/05/07 04:16:34;;;;;;;3.30;1.10;;;25.40;99.90;;;;;;5347748;26;19996;-55
2024/05/07 04:19:00;;;;;;;3.38;1.23;;;25.40;99.90;;;;;;5347910;26;20005;-54
2024/05/07 04:21:26;;;;;;;1.52;1.08;;;25.30;99.90;;;;;;5347889;26;19997;-55
2024/05/07 04:23:52;;;;;;;1.35;1.00;;;25.40;99.90;;;;;;5347687;26;20033;-55
2024/05/07 04:26:18;;;;;;;1.30;0.95;;;25.30;99.90;;;;;;5348141;26;20011;-54
2024/05/07 04:28:46;;;;;;;3.40;1.38;;;25.40;99.90;;;;;;5348156;26;20070;-55
2024/05/07 04:31:12;;;;;;;;;;;25.30;99.90;;;;;;5375824;26;20457;-55
2024/05/07 04:33:38;;;;;;;1.67;0.95;;;25.40;99.90;;;;;;5347590;26;19930;-54
2024/05/07 04:36:04;;;;;;;3.40;1.17;;;25.30;99.90;;;;;;5347658;26;20319;-55
2024/05/07 04:38:30;;;;;;;2.85;1.10;;;25.30;99.90;;;;;;5347589;26;20021;-57
2024/05/07 04:40:56;;;;;;;2.67;0.93;;;25.30;99.90;;;;;;5347652;26;20008;-55
2024/05/07 04:43:22;;;;;;;2.05;1.00;;;25.30;99.90;;;;;;5347473;26;20004;-57
2024/05/07 04:45:48;;;;;;;2.42;1.20;;;25.30;99.90;;;;;;5347833;26;19997;-55
2024/05/07 04:48:14;;;;;;;2.42;1.02;;;25.20;99.90;;;;;;5346841;26;19997;-55
2024/05/07 04:50:40;;;;;;;4.82;0.98;;;25.30;99.90;;;;;;5347402;26;19997;-54
2024/05/07 04:53:09;;;;;;;2.08;1.10;;;25.30;99.90;;;;;;5347344;26;20346;-55
2024/05/07 04:55:38;;;;;;;1.58;1.08;;;25.20;99.90;;;;;;5374843;26;20468;-55
2024/05/07 04:58:09;;;;;;;2.30;1.17;;;25.20;99.90;;;;;;5347323;26;20005;-55
2024/05/07 05:00:35;;;;;;;1.33;1.00;;;25.20;99.90;;;;;;5346859;26;20070;-55
2024/05/07 05:03:01;;;;;;;2.92;1.30;;;25.20;99.90;;;;;;5345357;26;20350;-55
2024/05/07 05:05:26;;;;;;;3.17;1.08;;;25.20;99.90;;;;;;5347235;26;20449;-55
2024/05/07 05:07:52;;;;;;;4.30;1.02;;;25.20;99.90;;;;;;5347333;26;20004;-55
2024/05/07 05:10:18;;;;;;;2.17;1.13;;;25.20;99.90;;;;;;5347451;26;19997;-55
2024/05/07 05:12:44;;;;;;;1.30;1.13;;;25.20;99.90;;;;;;5347095;26;19997;-55
2024/05/07 05:15:09;;;;;;;0.95;0.75;;;25.20;99.90;;;;;;5346974;26;20013;-56
2024/05/07 05:17:35;;;;;;;2.53;1.23;;;25.20;99.90;;;;;;5347034;26;20001;-55
2024/05/07 05:20:01;;;;;;;2.70;1.35;;;25.20;99.90;;;;;;5346878;26;20000;-55
2024/05/07 05:22:27;;;;;;;1.92;1.17;;;25.20;99.90;;;;;;5347006;26;20001;-55
2024/05/07 05:24:53;;;;;;;1.98;1.00;;;25.20;99.90;;;;;;5347013;26;20008;-55
2024/05/07 05:27:18;;;;;;;2.72;1.08;;;25.20;99.90;;;;;;5347150;26;19996;-54
2024/05/07 05:29:44;;;;;;;2.47;1.35;;;25.20;99.90;;;;;;5346984;26;20000;-55
2024/05/07 05:32:10;;;;;;;3.47;1.13;;;25.20;99.90;;;;;;5346918;26;20001;-55
2024/05/07 05:34:35;;;;;;;1.30;0.93;;;25.20;99.90;;;;;;5346906;26;19997;-55
2024/05/07 05:37:01;;;;;;;3.05;1.20;;;25.20;99.90;;;;;;5346820;26;20001;-55
2024/05/07 05:39:27;;;;;;;1.75;1.00;;;25.20;99.90;;;;;;5346575;26;20029;-55
2024/05/07 05:41:54;;;;;;;2.08;1.38;;;25.10;99.90;;;;;;5346521;26;20041;-55
2024/05/07 05:44:22;;;;;;;2.17;1.10;;;25.20;99.90;;;;;;5345130;26;20009;-55
2024/05/07 05:46:48;;;;;;;1.42;0.88;;;25.10;99.90;;;;;;5347066;26;20001;-55
2024/05/07 05:49:13;;;;;;;2.17;0.93;;;25.10;99.90;;;;;;5346655;26;20007;-55
2024/05/07 05:51:39;;;;;;;1.95;1.10;;;25.10;99.90;;;;;;5346575;26;20433;-55
2024/05/07 05:54:05;;;;;;;5.13;1.48;;;25.10;99.90;;;;;;5346613;26;19997;-55
2024/05/07 05:56:31;;;;;;;2.20;1.17;;;25.10;99.90;;;;;;5346935;26;20437;-56
2024/05/07 05:58:57;;;;;;;2.35;1.17;;;25.10;99.90;;;;;;5343301;26;20008;-56
2024/05/07 06:01:24;;;;;;;2.72;1.63;;;25.10;99.90;;;;;;5346720;26;20024;-56
2024/05/07 06:03:50;;;;;;;3.10;1.10;;;25.10;99.90;;;;;;5346755;26;20429;-56
2024/05/07 06:06:16;;;;;;;2.47;1.45;;;25.10;99.90;;;;;;5346562;26;20005;-56
2024/05/07 06:08:42;;;;;;;2.03;0.93;;;25.10;99.90;;;;;;5346550;26;20012;-56
2024/05/07 06:11:09;;;;;;;2.33;1.25;;;25.10;99.90;;;;;;5346280;26;20009;-56
2024/05/07 06:13:34;;;;;;;5.82;1.58;;;25.10;99.90;;;;;;5346349;26;20079;-56
2024/05/07 06:16:00;;;;;;;1.30;1.20;;;25.10;99.90;;;;;;5346310;26;20009;-56
2024/05/07 06:18:26;;;;;;;3.92;1.30;;;25.10;99.90;;;;;;5346249;26;19997;-57
2024/05/07 06:20:52;;;;;;;1.88;1.20;;;25.10;99.90;;;;;;5346405;26;20009;-56
2024/05/07 06:23:18;;;;;;;2.75;1.33;;;25.10;99.90;;;;;;5346200;26;19996;-56
2024/05/07 06:25:45;;;;;;;1.40;0.93;;;25.10;99.90;;;;;;5346386;26;20075;-56
2024/05/07 06:28:11;;;;;;;1.73;0.98;;;25.10;99.90;;;;;;5346208;26;20317;-56
2024/05/07 06:30:37;;;;;;;2.05;1.30;;;25.10;99.90;;;;;;5346188;26;20001;-56
2024/05/07 06:33:04;;;;;;;4.75;1.35;;;25.10;99.90;;;;;;5346230;26;20008;-56
2024/05/07 06:35:31;;;;;;;1.90;1.02;;;25.10;99.90;;;;;;5346078;26;20001;-56
2024/05/07 06:37:56;;;;;;;2.20;1.20;;;25.10;99.90;;;;;;5346046;26;20009;-56
2024/05/07 06:40:22;;;;;;;2.83;1.40;;;25.10;99.90;;;;;;5346291;26;20071;-56
2024/05/07 06:42:48;;;;;;;1.98;1.23;;;25.10;99.90;;;;;;5345829;26;20008;-56
2024/05/07 06:45:14;;;;;;;3.10;1.30;;;25.10;99.90;;;;;;5345975;26;20005;-56
2024/05/07 06:47:40;;;;;;;1.73;1.10;;;25.10;99.90;;;;;;5345854;26;20074;-56
2024/05/07 06:50:06;;;;;;;2.08;1.23;;;25.10;99.90;;;;;;5343869;26;20445;-56
2024/05/07 06:52:32;;;;;;;4.45;1.50;;;25.00;99.90;;;;;;5345800;26;20332;-57
2024/05/07 06:54:58;;;;;;;2.33;1.30;;;25.10;99.90;;;;;;5345907;26;20341;-57
2024/05/07 06:57:24;;;;;;;2.60;1.52;;;25.10;99.90;;;;;;5345835;26;20457;-57
2024/05/07 06:59:50;;;;;;;3.47;1.15;;;25.10;99.90;;;;;;5345467;26;20441;-57
2024/05/07 07:02:17;;;;;;;1.67;1.20;;;25.10;99.90;;;;;;5345469;26;20015;-56
2024/05/07 07:04:42;;;;;;;3.00;1.88;;;25.10;99.90;;;;;;5345932;26;20067;-57
2024/05/07 07:07:09;;;;;;;1.63;1.15;;;25.10;99.90;;;;;;5345850;26;20008;-57
2024/05/07 07:09:36;;;;;;;1.77;1.35;;;25.10;99.90;;;;;;5344957;26;20001;-57
2024/05/07 07:12:01;;;;;;;1.85;1.38;;;25.00;99.90;;;;;;5343641;26;19997;-56
2024/05/07 07:14:27;;;;;;;3.72;1.02;;;25.10;99.90;;;;;;5345731;26;20011;-56
2024/05/07 07:16:55;;;;;;;3.50;1.55;;;25.10;99.90;;;;;;5345727;26;19997;-56
2024/05/07 07:19:27;;;;;;;2.92;1.30;;;25.00;99.90;;;;;;5345725;26;20083;-55
2024/05/07 07:21:53;;;;;;;1.65;1.10;;;25.00;99.90;;;;;;5345597;26;20004;-56
2024/05/07 07:24:18;;;;;;;3.97;1.67;;;25.00;99.90;;;;;;5345462;26;20082;-56
2024/05/07 07:26:44;;;;;;;2.55;1.13;;;25.10;99.90;;;;;;5343699;26;20337;-57
2024/05/07 07:29:10;;;;;;;3.58;1.42;;;25.10;99.90;;;;;;5345445;26;19997;-56
2024/05/07 07:31:36;;;;;;;4.75;1.70;;;25.10;99.90;;;;;;5345384;26;19996;-56
2024/05/07 07:34:02;;;;;;;3.53;1.30;;;25.10;99.90;;;;;;5345105;26;20005;-56
2024/05/07 07:36:28;;;;;;;3.53;1.45;;;25.00;99.90;;;;;;5345756;26;20001;-56
2024/05/07 07:38:53;;;;;;;2.45;1.55;;;25.10;99.90;;;;;;5343648;26;20078;-56
2024/05/07 07:41:19;;;;;;;2.25;1.27;;;25.00;99.90;;;;;;5345134;26;20013;-56
2024/05/07 07:43:45;;;;;;;2.67;1.70;;;25.00;99.90;;;;;;5372436;26;20453;-56
2024/05/07 07:46:11;;;;;;;2.15;1.38;;;25.10;99.90;;;;;;5345098;26;20041;-56
2024/05/07 07:48:37;;;;;;;3.40;1.60;;;25.10;99.90;;;;;;5345313;26;20007;-56
2024/05/07 07:51:04;;;;;;;2.47;1.40;;;25.10;99.90;;;;;;5344964;26;20004;-56
2024/05/07 07:53:30;;;;;;;3.83;1.95;;;25.10;99.90;;;;;;5344851;26;20438;-56
2024/05/07 07:55:55;;;;;;;1.95;1.33;;;25.10;99.90;;;;;;5345134;26;20009;-56
2024/05/07 07:58:21;;;;;;;2.55;1.63;;;25.00;99.90;;;;;;5343050;26;20456;-56
2024/05/07 08:00:47;;;;;;;2.08;1.50;;;25.10;99.90;;;;;;5344538;26;20001;-58
2024/05/07 08:03:14;;;;;;;2.85;1.23;;;25.00;99.90;;;;;;5371980;26;19997;-57
2024/05/07 08:05:40;;;;;;;3.20;1.67;;;25.00;99.90;;;;;;5344507;26;20033;-57
2024/05/07 08:08:06;;;;;;;2.78;1.60;;;25.10;99.90;;;;;;5344692;26;20001;-56
2024/05/07 08:10:33;;;;;;;4.00;1.75;;;25.00;99.90;;;;;;5345200;26;20321;-56
2024/05/07 08:12:59;;;;;;;1.98;1.50;;;25.00;99.90;;;;;;5341760;26;20016;-55
2024/05/07 08:15:25;;;;;;;1.88;1.45;;;25.10;99.90;;;;;;5340843;26;20326;-56
2024/05/07 08:17:50;;;;;;;3.55;2.03;;;25.10;99.90;;;;;;5340551;26;19997;-57
2024/05/07 08:20:16;;;;;;;3.88;2.03;;;25.00;99.90;;;;;;5340683;26;20066;-57
2024/05/07 08:22:42;;;;;;;2.67;1.80;;;25.10;99.90;;;;;;5342509;26;19997;-57
2024/05/07 08:25:08;;;;;;;2.58;1.63;;;25.10;99.90;;;;;;5344071;26;19993;-57
2024/05/07 08:27:33;;;;;;;2.83;1.80;;;25.00;99.90;;;;;;5344968;26;20008;-57
2024/05/07 08:30:00;;;;;;;2.92;1.83;;;25.10;99.90;;;;;;5346273;26;20514;-57
2024/05/07 08:32:27;;;;;;;3.03;1.73;;;25.10;99.90;;;;;;5347825;26;20007;-57
2024/05/07 08:34:53;;;;;;;4.30;2.08;;;25.10;99.90;;;;;;5375314;26;20071;-57
2024/05/07 08:37:18;;;;;;;4.63;2.50;;;25.00;99.90;;;;;;5347579;26;20432;-57
2024/05/07 08:39:45;;;;;;;2.83;2.13;;;25.10;99.90;;;;;;5347512;26;20011;-57
2024/05/07 08:42:11;;;;;;;3.20;2.28;;;25.10;99.90;;;;;;5347420;26;19993;-57
2024/05/07 08:44:38;;;;;;;3.40;2.30;;;25.10;99.90;;;;;;5347687;26;20025;-57
2024/05/07 08:47:07;;;;;;;3.05;2.22;;;25.10;99.90;;;;;;5347624;26;20464;-57
2024/05/07 08:49:33;;;;;;;4.85;2.10;;;25.10;99.90;;;;;;5347399;26;20044;-57
2024/05/07 08:52:04;;;;;;;4.82;2.45;;;25.10;99.90;;;;;;5347451;26;19997;-57
2024/05/07 08:54:31;;;;;;;4.03;2.85;;;25.10;99.90;;;;;;5347532;26;20016;-57
2024/05/07 08:56:57;;;;;;;5.75;2.42;;;25.10;99.90;;;;;;5345971;26;20500;-57
2024/05/07 08:59:26;;;;;;;5.03;2.65;;;25.10;99.90;;;;;;5347280;26;20007;-57
2024/05/07 09:01:52;;;;;;;4.68;3.42;;;25.10;99.90;;;;;;5347377;26;20001;-57
2024/05/07 09:04:20;;;;;;;6.30;3.03;;;25.10;99.90;;;;;;5347184;26;19997;-57
2024/05/07 09:06:50;;;;;;;4.38;2.85;;;25.10;99.90;;;;;;5345441;26;19997;-57
2024/05/07 09:09:17;;;;;;;5.93;3.45;;;25.10;99.90;;;;;;5347255;26;20348;-57
2024/05/07 09:11:53;;;;;;;5.75;2.97;;;25.10;99.90;;;;;;5347171;26;19997;-57
2024/05/07 09:14:19;;;;;;;6.40;3.22;;;25.10;99.90;;;;;;5346996;26;19997;-57
2024/05/07 09:16:45;;;;;;;6.20;3.50;;;25.10;99.90;;;;;;5347268;26;20001;-56
2024/05/07 09:19:14;;;;;;;6.78;3.40;;;25.10;99.90;;;;;;5346869;26;20079;-56
2024/05/07 09:21:40;;;;;;;7.82;3.55;;;25.10;99.90;;;;;;5346811;26;20008;-57
2024/05/07 09:24:07;;;;;;;5.78;3.72;;;25.10;99.90;;;;;;5347064;26;20029;-56
2024/05/07 09:26:53;;;;;;;5.28;3.72;;;25.10;99.90;;;;;;5345411;26;20008;-57
2024/05/07 09:29:18;;;;;;;5.93;4.03;;;25.10;99.90;;;;;;5346344;26;20417;-57
2024/05/07 09:31:46;;;;;;;9.93;4.68;;;25.10;99.90;;;;;;5346890;26;19993;-57
2024/05/07 09:34:14;;;;;;;6.40;4.35;;;25.10;99.90;;;;;;5346327;26;19993;-57
2024/05/07 09:36:50;;;;;;;6.30;3.95;;;25.10;99.90;;;;;;5346799;26;19993;-56
2024/05/07 09:39:21;;;;;;;9.35;5.07;;;25.10;99.90;;;;;;5346752;26;20572;-57
2024/05/07 09:42:05;;;;;;;6.28;4.18;;;25.20;99.90;;;;;;5346901;26;20020;-57
2024/05/07 09:44:38;;;;;;;7.13;4.38;;;25.20;99.90;;;;;;5347131;26;20001;-57
2024/05/07 09:47:06;;;;;;;10.00;4.78;;;25.20;99.90;;;;;;5346897;26;20071;-56
2024/05/07 09:49:36;;;;;;;8.02;5.38;;;25.20;99.90;;;;;;5346584;26;20008;-57
2024/05/07 09:52:03;;;;;;;7.60;4.38;;;25.20;99.90;;;;;;5346821;26;20012;-57
2024/05/07 09:54:31;;;;;;;8.38;4.57;;;25.20;99.90;;;;;;5344771;26;20007;-57
2024/05/07 09:56:59;;;;;;;7.75;5.05;;;25.20;99.90;;;;;;5346301;26;20355;-56
2024/05/07 09:59:29;;;;;;;11.25;5.03;;;25.20;99.90;;;;;;5345878;26;19997;-56
2024/05/07 10:01:55;;;;;;;8.85;4.53;;;25.20;99.90;;;;;;5345998;26;20012;-56
2024/05/07 10:04:21;;;;;;;7.55;4.10;;;25.20;99.90;;;;;;5346202;26;20001;-55
2024/05/07 10:06:54;;;;;;;6.45;4.18;;;25.20;99.90;;;;;;5346096;26;20033;-56
2024/05/07 10:09:20;;;;;;;8.40;5.30;;;25.20;99.90;;;;;;5345999;26;20445;-56
2024/05/07 10:11:47;;;;;;;8.45;4.53;;;25.20;99.90;;;;;;5346036;26;20047;-56
2024/05/07 10:14:13;;;;;;;9.93;4.97;;;25.20;99.90;;;;;;5345883;26;20004;-56
2024/05/07 10:16:44;;;;;;;7.35;4.90;;;25.20;99.90;;;;;;5346184;26;20012;-56
2024/05/07 10:19:13;;;;;;;8.10;4.43;;;25.20;99.90;;;;;;5346171;26;20015;-56
2024/05/07 10:21:47;;;;;;;7.07;4.63;;;25.20;99.90;;;;;;5345592;26;20477;-56
2024/05/07 10:24:18;;;;;;;13.07;4.78;;;25.20;99.90;;;;;;5345611;26;20000;-56
2024/05/07 10:27:02;;;;;;;9.52;4.57;;;25.30;99.90;;;;;;5345766;26;20009;-56
2024/05/07 10:29:37;;;;;;;5.57;4.10;;;25.30;99.90;;;;;;5345851;26;20000;-56
2024/05/07 10:32:05;;;;;;;6.55;4.15;;;25.30;99.90;;;;;;5346093;26;20340;-56
2024/05/07 10:34:39;;;;;;;5.07;3.95;;;25.30;99.90;;;;;;5345903;26;20012;-56
2024/05/07 10:37:04;;;;;;;8.52;4.70;;;25.20;99.90;;;;;;5346080;26;19997;-56
2024/05/07 10:39:41;;;;;;;8.82;4.53;;;25.30;99.90;;;;;;5345764;26;20016;-56
2024/05/07 10:42:14;;;;;;;10.10;4.53;;;25.30;99.90;;;;;;5346311;26;20001;-56
2024/05/07 10:44:41;;;;;;;8.30;4.50;;;25.30;99.90;;;;;;5345021;26;20491;-56
2024/05/07 10:47:08;;;;;;;10.40;5.15;;;25.30;99.90;;;;;;5346183;26;19997;-56
2024/05/07 10:49:33;;;;;;;10.57;4.20;;;25.30;99.90;;;;;;5346162;26;20007;-56
2024/05/07 10:52:06;;;;;;;8.38;4.65;;;25.30;99.90;;;;;;5345755;26;20008;-56
2024/05/07 10:54:31;;;;;;;9.07;4.32;;;25.30;99.90;;;;;;5345683;26;19997;-56
2024/05/07 10:56:57;;;;;;;8.90;5.22;;;25.40;99.90;;;;;;5344001;26;19997;-56
2024/05/07 10:59:23;;;;;;;5.60;4.55;;;25.40;99.90;;;;;;5345687;26;20001;-56
2024/05/07 11:01:49;;;;;;;7.13;4.20;;;25.40;99.90;;;;;;5343851;26;20078;-56
2024/05/07 11:04:18;;;;;;;8.10;4.25;;;25.40;99.90;;;;;;5345501;26;20005;-56
2024/05/07 11:06:44;;;;;;;6.63;4.45;;;25.40;99.90;;;;;;5345561;26;20008;-56
2024/05/07 11:09:19;;;;;;;7.55;4.63;;;25.40;99.90;;;;;;5345240;26;19997;-56
2024/05/07 11:11:46;;;;;;;7.65;4.10;;;25.40;99.90;;;;;;5345493;26;19997;-56
2024/05/07 11:14:12;;;;;;;6.32;3.80;;;25.40;99.90;;;;;;5345260;26;20012;-56
2024/05/07 11:16:38;;;;;;;6.88;3.97;;;25.50;99.90;;;;;;5345257;26;20000;-56
2024/05/07 11:19:04;;;;;;;6.05;4.15;;;25.40;99.90;;;;;;5344877;26;20008;-56
2024/05/07 11:21:29;;;;;;;8.23;4.88;;;25.40;99.90;;;;;;5372859;26;20008;-55
2024/05/07 11:23:56;;;;;;;7.30;3.95;;;25.50;99.90;;;;;;5345234;26;20001;-56
2024/05/07 11:26:22;;;;;;;9.48;4.57;;;25.50;99.90;;;;;;5343070;26;20012;-56
2024/05/07 11:28:48;;;;;;;8.85;4.43;;;25.50;99.90;;;;;;5344990;26;20011;-55
2024/05/07 11:31:14;;;;;;;7.78;3.70;;;25.50;99.90;;;;;;5345242;26;19997;-56
2024/05/07 11:33:40;;;;;;;8.63;4.00;;;25.50;99.90;;;;;;5345323;26;20012;-56
2024/05/07 11:36:06;;;;;;;11.07;4.07;;;25.50;99.90;;;;;;5343114;26;20000;-56
2024/05/07 11:38:33;;;;;;;6.72;4.50;;;25.50;99.90;;;;;;5342984;26;19996;-55
2024/05/07 11:40:58;;;;;;;6.72;3.70;;;25.50;99.90;;;;;;5344650;26;20001;-56
2024/05/07 11:43:24;;;;;;;7.68;4.25;;;25.60;99.90;;;;;;5344744;26;20001;-56
2024/05/07 11:45:50;;;;;;;7.68;4.60;;;25.50;99.90;;;;;;5343217;26;20001;-56
2024/05/07 11:48:16;;;;;;;10.15;5.20;;;25.60;99.90;;;;;;5344552;26;20008;-56
2024/05/07 11:50:42;;;;;;;7.68;4.30;;;25.60;99.90;;;;;;5344793;26;20511;-56
2024/05/07 11:53:08;;;;;;;6.10;3.97;;;25.60;99.90;;;;;;5344336;26;19996;-55
2024/05/07 11:55:33;;;;;;;7.63;4.72;;;25.60;99.90;;;;;;5344587;26;20011;-56
2024/05/07 11:57:59;;;;;;;7.13;4.15;;;25.60;99.90;;;;;;5390371;26;20076;-55
2024/05/07 12:00:26;;;;;;;7.75;4.18;;;25.60;99.90;;;;;;5393337;26;20015;-57
2024/05/07 12:02:52;;;;;;;6.95;4.07;;;25.70;99.90;;;;;;5399159;26;20012;-56
2024/05/07 12:05:23;;;;;;;11.25;4.32;;;25.70;99.90;;;;;;5398408;26;20007;-56
2024/05/07 12:07:49;;;;;;;8.75;4.55;;;25.70;99.90;;;;;;5347758;26;20445;-56
2024/05/07 12:10:15;;;;;;;8.00;4.70;;;25.70;99.90;;;;;;5382733;26;20018;-56
2024/05/07 12:12:41;;;;;;;8.10;4.03;;;25.70;99.90;;;;;;5385851;26;20000;-56
2024/05/07 12:15:08;;;;;;;9.02;4.65;;;25.70;99.90;;;;;;5382127;26;20081;-54
2024/05/07 12:17:34;;;;;;;11.47;4.60;;;25.70;99.90;;;;;;5377335;26;20014;-53
2024/05/07 12:20:04;;;;;;;7.17;4.63;;;25.70;99.90;;;;;;5381316;26;20356;-52
2024/05/07 12:28:00;;;;;;;12.30;4.75;;;25.80;99.90;;;;;;5382353;26;20014;-55
2024/05/07 12:30:26;;;;;;;12.60;4.32;;;25.80;99.90;;;;;;5382576;26;20000;-55
2024/05/07 12:32:52;;;;;;;10.60;4.03;;;25.80;99.90;;;;;;5381728;26;20001;-56
2024/05/07 12:35:19;;;;;;;7.97;2.35;;;25.90;99.90;;;;;;5379806;26;20427;-56
2024/05/07 12:37:45;;;;;;;8.73;2.25;;;25.90;99.90;;;;;;5379727;26;20016;-56
2024/05/07 12:40:12;;;;;;;12.98;3.25;;;25.90;99.90;;;;;;5381999;26;20081;-57
2024/05/07 12:42:38;;;;;;;10.55;2.10;;;25.90;99.90;;;;;;5381383;26;20172;-57
2024/05/07 12:45:04;;;;;;;8.55;1.63;;;25.90;99.90;;;;;;5381491;26;20452;-57
2024/05/07 12:47:30;;;;;;;13.88;2.88;;;25.90;99.90;;;;;;5381160;26;20004;-58
2024/05/07 12:49:57;;;;;;;7.30;2.40;;;25.90;99.90;;;;;;5381567;26;20000;-57